sensor_id;sensor_type;location;lat;lon;timestamp;pressure;altitude;pressure_sealevel;temperature;humidity
15634;BME280;14654;48.898;8.308;2023-07-09T00:02:12;100499.72;;;22.36;100.00
15634;BME280;14654;48.898;8.308;2023-07-09T00:04:37;100504.47;;;22.30;100.00
15634;BME280;14654;48.898;8.308;2023-07-09T00:07:04;100502.06;;;22.25;100.00
15634;BME280;14654;48.898;8.308;2023-07-09T00:09:30;100503.97;;;22.23;100.00
15634;BME280;14654;48.898;8.308;2023-07-09T00:11:55;100501.41;;;22.21;100.00
15634;BME280;14654;48.898;8.308;2023-07-09T00:14:21;100505.13;;;22.17;100.00
15634;BME280;14654;48.898;8.308;2023-07-09T00:16:46;100503.63;;;22.13;100.00
15634;BME280;14654;48.898;8.308;2023-07-09T00:19:15;100507.34;;;22.09;100.00
15634;BME280;14654;48.898;8.308;2023-07-09T00:21:43;100502.22;;;22.06;100.00
15634;BME280;14654;48.898;8.308;2023-07-09T00:24:11;100501.53;;;22.02;100.00
15634;BME280;14654;48.898;8.308;2023-07-09T00:26:37;100500.78;;;22.00;100.00
15634;BME280;14654;48.898;8.308;2023-07-09T00:29:04;100503.31;;;22.02;100.00
15634;BME280;14654;48.898;8.308;2023-07-09T00:31:29;100504.97;;;22.04;100.00
15634;BME280;14654;48.898;8.308;2023-07-09T00:33:55;100503.16;;;22.05;100.00
15634;BME280;14654;48.898;8.308;2023-07-09T00:36:29;100508.59;;;22.02;100.00
15634;BME280;14654;48.898;8.308;2023-07-09T00:38:57;100508.94;;;21.96;100.00
15634;BME280;14654;48.898;8.308;2023-07-09T00:41:25;100513.75;;;21.87;100.00
15634;BME280;14654;48.898;8.308;2023-07-09T00:43:51;100509.66;;;21.82;100.00
15634;BME280;14654;48.898;8.308;2023-07-09T00:48:50;100514.47;;;21.73;100.00
15634;BME280;14654;48.898;8.308;2023-07-09T00:51:20;100516.34;;;21.71;100.00
15634;BME280;14654;48.898;8.308;2023-07-09T00:53:49;100520.00;;;21.69;100.00
15634;BME280;14654;48.898;8.308;2023-07-09T00:56:26;100521.75;;;21.68;100.00
15634;BME280;14654;48.898;8.308;2023-07-09T00:58:54;100519.28;;;21.65;100.00
15634;BME280;14654;48.898;8.308;2023-07-09T01:01:21;100518.50;;;21.63;100.00
15634;BME280;14654;48.898;8.308;2023-07-09T01:03:53;100513.25;;;21.63;100.00
15634;BME280;14654;48.898;8.308;2023-07-09T01:06:30;100525.56;;;21.62;100.00
15634;BME280;14654;48.898;8.308;2023-07-09T01:08:58;100521.22;;;21.61;100.00
15634;BME280;14654;48.898;8.308;2023-07-09T01:11:24;100523.03;;;21.61;100.00
15634;BME280;14654;48.898;8.308;2023-07-09T01:13:56;100528.31;;;21.59;100.00
15634;BME280;14654;48.898;8.308;2023-07-09T01:16:24;100529.34;;;21.57;100.00
15634;BME280;14654;48.898;8.308;2023-07-09T01:18:51;100527.88;;;21.51;100.00
15634;BME280;14654;48.898;8.308;2023-07-09T01:21:16;100530.97;;;21.42;100.00
15634;BME280;14654;48.898;8.308;2023-07-09T01:23:47;100530.22;;;21.40;100.00
15634;BME280;14654;48.898;8.308;2023-07-09T01:26:19;100533.69;;;21.40;100.00
15634;BME280;14654;48.898;8.308;2023-07-09T01:28:44;100524.94;;;21.40;100.00
15634;BME280;14654;48.898;8.308;2023-07-09T01:31:11;100532.91;;;21.38;100.00
15634;BME280;14654;48.898;8.308;2023-07-09T01:33:39;100523.25;;;21.39;100.00
15634;BME280;14654;48.898;8.308;2023-07-09T01:36:07;100525.09;;;21.37;100.00
15634;BME280;14654;48.898;8.308;2023-07-09T01:38:33;100524.22;;;21.36;100.00
15634;BME280;14654;48.898;8.308;2023-07-09T01:40:59;100520.75;;;21.36;100.00
15634;BME280;14654;48.898;8.308;2023-07-09T01:43:25;100524.22;;;21.36;100.00
15634;BME280;14654;48.898;8.308;2023-07-09T01:45:51;100528.66;;;21.36;100.00
15634;BME280;14654;48.898;8.308;2023-07-09T01:48:18;100526.16;;;21.32;100.00
15634;BME280;14654;48.898;8.308;2023-07-09T01:50:46;100524.63;;;21.28;100.00
15634;BME280;14654;48.898;8.308;2023-07-09T01:53:15;100517.81;;;21.24;100.00
15634;BME280;14654;48.898;8.308;2023-07-09T01:55:41;100519.72;;;21.21;100.00
15634;BME280;14654;48.898;8.308;2023-07-09T01:58:07;100514.78;;;21.14;100.00
15634;BME280;14654;48.898;8.308;2023-07-09T02:00:34;100517.66;;;21.10;100.00
15634;BME280;14654;48.898;8.308;2023-07-09T02:03:03;100522.13;;;21.08;100.00
15634;BME280;14654;48.898;8.308;2023-07-09T02:05:31;100514.38;;;21.05;100.00
15634;BME280;14654;48.898;8.308;2023-07-09T02:07:58;100510.19;;;21.00;100.00
15634;BME280;14654;48.898;8.308;2023-07-09T02:10:23;100516.47;;;20.98;100.00
15634;BME280;14654;48.898;8.308;2023-07-09T02:12:48;100514.06;;;20.93;100.00
15634;BME280;14654;48.898;8.308;2023-07-09T02:15:14;100522.09;;;20.90;100.00
15634;BME280;14654;48.898;8.308;2023-07-09T02:17:40;100526.81;;;20.83;100.00
15634;BME280;14654;48.898;8.308;2023-07-09T02:20:07;100534.06;;;20.78;100.00
15634;BME280;14654;48.898;8.308;2023-07-09T02:22:36;100531.63;;;20.74;100.00
15634;BME280;14654;48.898;8.308;2023-07-09T02:25:03;100532.69;;;20.69;100.00
15634;BME280;14654;48.898;8.308;2023-07-09T02:27:29;100532.81;;;20.66;100.00
15634;BME280;14654;48.898;8.308;2023-07-09T02:29:54;100538.16;;;20.65;100.00
15634;BME280;14654;48.898;8.308;2023-07-09T02:32:25;100535.63;;;20.63;100.00
15634;BME280;14654;48.898;8.308;2023-07-09T02:34:54;100540.94;;;20.62;100.00
15634;BME280;14654;48.898;8.308;2023-07-09T02:37:22;100542.72;;;20.61;100.00
15634;BME280;14654;48.898;8.308;2023-07-09T02:39:48;100547.19;;;20.59;100.00
15634;BME280;14654;48.898;8.308;2023-07-09T02:42:15;100539.38;;;20.58;100.00
15634;BME280;14654;48.898;8.308;2023-07-09T02:44:41;100549.97;;;20.56;100.00
15634;BME280;14654;48.898;8.308;2023-07-09T02:47:07;100546.50;;;20.55;100.00
15634;BME280;14654;48.898;8.308;2023-07-09T02:49:33;100557.03;;;20.55;100.00
15634;BME280;14654;48.898;8.308;2023-07-09T02:51:58;100550.97;;;20.53;100.00
15634;BME280;14654;48.898;8.308;2023-07-09T02:54:24;100554.66;;;20.49;100.00
15634;BME280;14654;48.898;8.308;2023-07-09T02:56:49;100553.09;;;20.45;100.00
15634;BME280;14654;48.898;8.308;2023-07-09T02:59:14;100549.69;;;20.43;100.00
15634;BME280;14654;48.898;8.308;2023-07-09T03:01:40;100550.75;;;20.39;100.00
15634;BME280;14654;48.898;8.308;2023-07-09T03:04:06;100556.16;;;20.36;100.00
15634;BME280;14654;48.898;8.308;2023-07-09T03:06:32;100552.75;;;20.34;100.00
15634;BME280;14654;48.898;8.308;2023-07-09T03:08:59;100546.66;;;20.33;100.00
15634;BME280;14654;48.898;8.308;2023-07-09T03:11:25;100550.97;;;20.34;100.00
15634;BME280;14654;48.898;8.308;2023-07-09T03:13:50;100551.03;;;20.33;100.00
15634;BME280;14654;48.898;8.308;2023-07-09T03:16:16;100551.13;;;20.31;100.00
15634;BME280;14654;48.898;8.308;2023-07-09T03:18:44;100546.78;;;20.30;100.00
15634;BME280;14654;48.898;8.308;2023-07-09T03:21:09;100550.47;;;20.26;100.00
15634;BME280;14654;48.898;8.308;2023-07-09T03:23:34;100541.91;;;20.21;100.00
15634;BME280;14654;48.898;8.308;2023-07-09T03:25:59;100549.97;;;20.18;100.00
15634;BME280;14654;48.898;8.308;2023-07-09T03:28:25;100555.41;;;20.13;100.00
15634;BME280;14654;48.898;8.308;2023-07-09T03:30:53;100552.94;;;20.10;100.00
15634;BME280;14654;48.898;8.308;2023-07-09T03:33:19;100552.97;;;20.08;100.00
15634;BME280;14654;48.898;8.308;2023-07-09T03:35:45;100553.97;;;20.06;100.00
15634;BME280;14654;48.898;8.308;2023-07-09T03:38:11;100555.91;;;20.02;100.00
15634;BME280;14654;48.898;8.308;2023-07-09T03:40:37;100563.13;;;19.97;100.00
15634;BME280;14654;48.898;8.308;2023-07-09T03:43:06;100563.25;;;19.94;100.00
15634;BME280;14654;48.898;8.308;2023-07-09T03:45:32;100562.47;;;19.92;100.00
15634;BME280;14654;48.898;8.308;2023-07-09T03:47:58;100567.78;;;19.90;100.00
15634;BME280;14654;48.898;8.308;2023-07-09T03:50:23;100572.97;;;19.92;100.00
15634;BME280;14654;48.898;8.308;2023-07-09T03:52:49;100576.47;;;19.92;100.00
15634;BME280;14654;48.898;8.308;2023-07-09T03:55:14;100581.72;;;19.92;100.00
15634;BME280;14654;48.898;8.308;2023-07-09T03:57:39;100587.81;;;19.93;100.00
15634;BME280;14654;48.898;8.308;2023-07-09T04:00:05;100586.97;;;19.92;100.00
15634;BME280;14654;48.898;8.308;2023-07-09T04:02:35;100592.16;;;19.94;100.00
15634;BME280;14654;48.898;8.308;2023-07-09T04:05:00;100595.56;;;19.96;100.00
15634;BME280;14654;48.898;8.308;2023-07-09T04:07:25;100603.38;;;19.98;100.00
15634;BME280;14654;48.898;8.308;2023-07-09T04:09:51;100607.66;;;20.00;100.00
15634;BME280;14654;48.898;8.308;2023-07-09T04:12:16;100606.66;;;20.03;100.00
15634;BME280;14654;48.898;8.308;2023-07-09T04:14:41;100600.34;;;20.07;100.00
15634;BME280;14654;48.898;8.308;2023-07-09T04:17:07;100611.44;;;20.14;100.00
15634;BME280;14654;48.898;8.308;2023-07-09T04:19:32;100609.31;;;20.22;100.00
15634;BME280;14654;48.898;8.308;2023-07-09T04:21:58;100615.03;;;20.32;100.00
15634;BME280;14654;48.898;8.308;2023-07-09T04:24:23;100613.69;;;20.42;100.00
15634;BME280;14654;48.898;8.308;2023-07-09T04:26:48;100613.22;;;20.53;100.00
15634;BME280;14654;48.898;8.308;2023-07-09T04:29:14;100620.69;;;20.62;100.00
15634;BME280;14654;48.898;8.308;2023-07-09T04:31:40;100616.59;;;20.76;100.00
15634;BME280;14654;48.898;8.308;2023-07-09T04:34:06;100612.53;;;20.88;100.00
15634;BME280;14654;48.898;8.308;2023-07-09T04:36:32;100614.75;;;20.97;100.00
15634;BME280;14654;48.898;8.308;2023-07-09T04:38:58;100622.28;;;21.05;100.00
15634;BME280;14654;48.898;8.308;2023-07-09T04:41:23;100627.88;;;21.16;100.00
15634;BME280;14654;48.898;8.308;2023-07-09T04:43:49;100626.22;;;21.50;100.00
15634;BME280;14654;48.898;8.308;2023-07-09T04:46:14;100619.78;;;22.08;100.00
15634;BME280;14654;48.898;8.308;2023-07-09T04:48:40;100620.84;;;22.73;100.00
15634;BME280;14654;48.898;8.308;2023-07-09T04:51:05;100619.63;;;23.43;100.00
15634;BME280;14654;48.898;8.308;2023-07-09T04:53:30;100614.22;;;24.05;100.00
15634;BME280;14654;48.898;8.308;2023-07-09T04:55:56;100616.84;;;24.63;99.05
15634;BME280;14654;48.898;8.308;2023-07-09T04:58:21;100622.75;;;25.10;96.92
15634;BME280;14654;48.898;8.308;2023-07-09T05:00:46;100614.41;;;25.57;94.49
15634;BME280;14654;48.898;8.308;2023-07-09T05:03:12;100622.22;;;25.99;92.62
15634;BME280;14654;48.898;8.308;2023-07-09T05:05:44;100618.31;;;26.17;91.24
15634;BME280;14654;48.898;8.308;2023-07-09T05:08:09;100616.03;;;26.50;90.20
15634;BME280;14654;48.898;8.308;2023-07-09T05:10:41;100618.19;;;26.95;88.93
15634;BME280;14654;48.898;8.308;2023-07-09T05:13:06;100619.22;;;27.41;87.12
15634;BME280;14654;48.898;8.308;2023-07-09T05:15:32;100623.06;;;27.97;85.03
15634;BME280;14654;48.898;8.308;2023-07-09T05:17:57;100620.09;;;28.36;83.15
15634;BME280;14654;48.898;8.308;2023-07-09T05:20:22;100619.06;;;28.82;82.17
15634;BME280;14654;48.898;8.308;2023-07-09T05:22:48;100623.91;;;29.21;80.90
15634;BME280;14654;48.898;8.308;2023-07-09T05:25:13;100620.03;;;29.58;80.17
15634;BME280;14654;48.898;8.308;2023-07-09T05:27:39;100615.69;;;29.99;78.60
15634;BME280;14654;48.898;8.308;2023-07-09T05:30:05;100607.47;;;30.53;73.92
15634;BME280;14654;48.898;8.308;2023-07-09T05:32:30;100616.00;;;30.87;72.30
15634;BME280;14654;48.898;8.308;2023-07-09T05:34:56;100609.25;;;31.03;72.13
15634;BME280;14654;48.898;8.308;2023-07-09T05:37:21;100610.72;;;31.37;71.42
15634;BME280;14654;48.898;8.308;2023-07-09T05:39:47;100611.66;;;31.75;69.38
15634;BME280;14654;48.898;8.308;2023-07-09T05:42:12;100607.28;;;31.84;70.22
15634;BME280;14654;48.898;8.308;2023-07-09T05:44:37;100604.09;;;32.08;69.81
15634;BME280;14654;48.898;8.308;2023-07-09T05:47:03;100605.06;;;32.27;69.56
15634;BME280;14654;48.898;8.308;2023-07-09T05:49:28;100601.59;;;32.62;67.75
15634;BME280;14654;48.898;8.308;2023-07-09T05:51:53;100608.72;;;32.72;67.59
15634;BME280;14654;48.898;8.308;2023-07-09T05:54:18;100611.25;;;33.01;67.54
15634;BME280;14654;48.898;8.308;2023-07-09T05:56:44;100609.41;;;33.38;65.63
15634;BME280;14654;48.898;8.308;2023-07-09T05:59:09;100616.72;;;33.54;65.05
15634;BME280;14654;48.898;8.308;2023-07-09T06:01:35;100617.38;;;33.74;64.06
15634;BME280;14654;48.898;8.308;2023-07-09T06:04:00;100613.84;;;33.73;65.34
15634;BME280;14654;48.898;8.308;2023-07-09T06:06:26;100611.28;;;34.16;63.08
15634;BME280;14654;48.898;8.308;2023-07-09T06:08:53;100613.38;;;34.39;62.00
15634;BME280;14654;48.898;8.308;2023-07-09T06:11:18;100605.94;;;34.25;61.63
15634;BME280;14654;48.898;8.308;2023-07-09T06:13:44;100609.84;;;34.04;61.28
15634;BME280;14654;48.898;8.308;2023-07-09T06:16:09;100613.09;;;34.50;61.50
15634;BME280;14654;48.898;8.308;2023-07-09T06:18:34;100599.06;;;34.82;60.99
15634;BME280;14654;48.898;8.308;2023-07-09T06:21:01;100608.03;;;35.07;60.23
15634;BME280;14654;48.898;8.308;2023-07-09T06:23:28;100605.50;;;34.03;60.99
15634;BME280;14654;48.898;8.308;2023-07-09T06:25:54;100609.94;;;33.23;62.29
15634;BME280;14654;48.898;8.308;2023-07-09T06:28:22;100609.97;;;33.68;62.26
15634;BME280;14654;48.898;8.308;2023-07-09T06:30:48;100610.03;;;32.95;61.74
15634;BME280;14654;48.898;8.308;2023-07-09T06:33:15;100600.69;;;33.18;62.37
15634;BME280;14654;48.898;8.308;2023-07-09T06:35:51;100597.53;;;31.92;64.17
15634;BME280;14654;48.898;8.308;2023-07-09T06:38:17;100598.63;;;32.00;64.87
15634;BME280;14654;48.898;8.308;2023-07-09T06:40:43;100602.94;;;32.11;65.01
15634;BME280;14654;48.898;8.308;2023-07-09T06:43:09;100606.88;;;32.82;64.51
15634;BME280;14654;48.898;8.308;2023-07-09T06:45:34;100605.31;;;33.34;62.69
15634;BME280;14654;48.898;8.308;2023-07-09T06:48:00;100610.84;;;33.32;62.61
15634;BME280;14654;48.898;8.308;2023-07-09T06:50:26;100608.81;;;32.90;62.87
15634;BME280;14654;48.898;8.308;2023-07-09T06:52:51;100614.81;;;32.08;65.10
15634;BME280;14654;48.898;8.308;2023-07-09T06:55:17;100618.06;;;32.95;63.74
15634;BME280;14654;48.898;8.308;2023-07-09T06:57:42;100611.63;;;33.42;63.57
15634;BME280;14654;48.898;8.308;2023-07-09T07:00:08;100607.13;;;33.96;62.66
15634;BME280;14654;48.898;8.308;2023-07-09T07:02:33;100612.84;;;33.74;62.41
15634;BME280;14654;48.898;8.308;2023-07-09T07:04:59;100610.44;;;33.63;61.82
15634;BME280;14654;48.898;8.308;2023-07-09T07:07:24;100606.78;;;33.28;62.19
15634;BME280;14654;48.898;8.308;2023-07-09T07:09:49;100603.88;;;33.21;63.09
15634;BME280;14654;48.898;8.308;2023-07-09T07:12:27;100605.88;;;33.19;62.45
15634;BME280;14654;48.898;8.308;2023-07-09T07:14:53;100612.38;;;32.15;63.06
15634;BME280;14654;48.898;8.308;2023-07-09T07:17:19;100606.22;;;32.70;62.37
15634;BME280;14654;48.898;8.308;2023-07-09T07:19:44;100601.53;;;33.00;61.56
15634;BME280;14654;48.898;8.308;2023-07-09T07:22:10;100599.19;;;32.41;61.54
15634;BME280;14654;48.898;8.308;2023-07-09T07:24:35;100601.34;;;33.02;61.71
15634;BME280;14654;48.898;8.308;2023-07-09T07:27:01;100599.28;;;33.13;61.82
15634;BME280;14654;48.898;8.308;2023-07-09T07:29:26;100592.00;;;33.24;61.62
15634;BME280;14654;48.898;8.308;2023-07-09T07:31:51;100602.50;;;32.99;61.62
15634;BME280;14654;48.898;8.308;2023-07-09T07:34:18;100596.53;;;33.05;62.07
15634;BME280;14654;48.898;8.308;2023-07-09T07:36:43;100589.31;;;32.04;62.62
15634;BME280;14654;48.898;8.308;2023-07-09T07:39:09;100600.22;;;31.83;64.23
15634;BME280;14654;48.898;8.308;2023-07-09T07:41:34;100595.09;;;32.09;63.84
15634;BME280;14654;48.898;8.308;2023-07-09T07:43:59;100602.91;;;31.83;64.67
15634;BME280;14654;48.898;8.308;2023-07-09T07:46:25;100587.13;;;31.89;64.73
15634;BME280;14654;48.898;8.308;2023-07-09T07:48:50;100583.72;;;31.97;64.74
15634;BME280;14654;48.898;8.308;2023-07-09T07:51:15;100591.25;;;31.54;64.95
15634;BME280;14654;48.898;8.308;2023-07-09T07:53:41;100587.81;;;31.91;65.07
15634;BME280;14654;48.898;8.308;2023-07-09T07:56:06;100580.69;;;31.62;65.19
15634;BME280;14654;48.898;8.308;2023-07-09T07:58:32;100578.00;;;31.82;65.10
15634;BME280;14654;48.898;8.308;2023-07-09T08:00:58;100573.53;;;32.38;63.91
15634;BME280;14654;48.898;8.308;2023-07-09T08:03:23;100580.72;;;32.66;63.35
15634;BME280;14654;48.898;8.308;2023-07-09T08:05:50;100580.03;;;31.98;64.15
15634;BME280;14654;48.898;8.308;2023-07-09T08:08:15;100575.34;;;32.48;64.52
15634;BME280;14654;48.898;8.308;2023-07-09T08:10:41;100570.09;;;33.10;63.89
15634;BME280;14654;48.898;8.308;2023-07-09T08:13:06;100571.91;;;32.56;64.20
15634;BME280;14654;48.898;8.308;2023-07-09T08:15:32;100570.53;;;32.69;63.97
15634;BME280;14654;48.898;8.308;2023-07-09T08:17:57;100567.91;;;32.04;64.75
15634;BME280;14654;48.898;8.308;2023-07-09T08:20:23;100560.59;;;31.96;65.71
15634;BME280;14654;48.898;8.308;2023-07-09T08:22:48;100560.56;;;32.06;65.60
15634;BME280;14654;48.898;8.308;2023-07-09T08:25:13;100563.25;;;32.06;65.39
15634;BME280;14654;48.898;8.308;2023-07-09T08:27:39;100557.09;;;32.23;65.27
15634;BME280;14654;48.898;8.308;2023-07-09T08:30:05;100562.41;;;32.05;64.53
15634;BME280;14654;48.898;8.308;2023-07-09T08:32:31;100561.94;;;32.48;64.20
15634;BME280;14654;48.898;8.308;2023-07-09T08:34:56;100565.19;;;31.76;65.50
15634;BME280;14654;48.898;8.308;2023-07-09T08:37:22;100565.72;;;31.89;65.35
15634;BME280;14654;48.898;8.308;2023-07-09T08:39:47;100560.00;;;32.40;64.66
15634;BME280;14654;48.898;8.308;2023-07-09T08:42:27;100563.41;;;32.60;64.73
15634;BME280;14654;48.898;8.308;2023-07-09T08:45:36;100557.88;;;32.44;64.76
15634;BME280;14654;48.898;8.308;2023-07-09T08:48:29;100555.91;;;32.08;65.07
15634;BME280;14654;48.898;8.308;2023-07-09T08:51:22;100552.28;;;31.99;65.20
15634;BME280;14654;48.898;8.308;2023-07-09T08:53:54;100559.75;;;32.05;64.95
15634;BME280;14654;48.898;8.308;2023-07-09T08:56:22;100562.13;;;31.61;65.31
15634;BME280;14654;48.898;8.308;2023-07-09T08:58:49;100562.06;;;31.81;65.32
15634;BME280;14654;48.898;8.308;2023-07-09T09:01:26;100557.47;;;32.01;65.42
15634;BME280;14654;48.898;8.308;2023-07-09T09:03:56;100564.03;;;32.16;64.68
15634;BME280;14654;48.898;8.308;2023-07-09T09:06:28;100551.50;;;32.27;64.78
15634;BME280;14654;48.898;8.308;2023-07-09T09:11:31;100566.75;;;31.59;66.11
15634;BME280;14654;48.898;8.308;2023-07-09T09:14:03;100563.75;;;31.82;64.94
15634;BME280;14654;48.898;8.308;2023-07-09T09:16:33;100554.31;;;32.15;64.95
15634;BME280;14654;48.898;8.308;2023-07-09T09:19:01;100558.94;;;31.85;64.82
15634;BME280;14654;48.898;8.308;2023-07-09T09:21:36;100553.81;;;31.54;65.38
15634;BME280;14654;48.898;8.308;2023-07-09T09:24:17;100554.13;;;31.99;64.80
15634;BME280;14654;48.898;8.308;2023-07-09T09:26:44;100552.78;;;31.85;66.04
15634;BME280;14654;48.898;8.308;2023-07-09T09:29:12;100546.91;;;31.71;66.94
15634;BME280;14654;48.898;8.308;2023-07-09T09:31:37;100541.78;;;32.16;66.27
15634;BME280;14654;48.898;8.308;2023-07-09T09:34:03;100546.34;;;32.05;65.97
15634;BME280;14654;48.898;8.308;2023-07-09T09:36:30;100535.78;;;32.04;66.98
15634;BME280;14654;48.898;8.308;2023-07-09T09:38:55;100531.59;;;32.29;66.72
15634;BME280;14654;48.898;8.308;2023-07-09T09:41:29;100532.69;;;32.36;66.60
15634;BME280;14654;48.898;8.308;2023-07-09T09:43:55;100526.63;;;32.06;65.54
15634;BME280;14654;48.898;8.308;2023-07-09T09:46:26;100531.75;;;32.28;65.35
15634;BME280;14654;48.898;8.308;2023-07-09T09:48:58;100526.66;;;32.34;65.15
15634;BME280;14654;48.898;8.308;2023-07-09T09:51:24;100523.63;;;32.37;64.94
15634;BME280;14654;48.898;8.308;2023-07-09T09:54:24;100529.34;;;32.25;65.37
15634;BME280;14654;48.898;8.308;2023-07-09T09:56:50;100525.09;;;32.32;65.17
15634;BME280;14654;48.898;8.308;2023-07-09T09:59:29;100522.13;;;32.53;64.80
15634;BME280;14654;48.898;8.308;2023-07-09T10:02:05;100517.34;;;32.57;64.90
15634;BME280;14654;48.898;8.308;2023-07-09T10:04:37;100517.69;;;32.62;65.22
15634;BME280;14654;48.898;8.308;2023-07-09T10:07:07;100494.75;;;32.41;65.43
15634;BME280;14654;48.898;8.308;2023-07-09T10:09:49;100493.75;;;32.42;64.13
15634;BME280;14654;48.898;8.308;2023-07-09T10:25:48;100476.59;;;32.53;62.82
15634;BME280;14654;48.898;8.308;2023-07-09T10:31:05;100473.84;;;32.45;62.25
15634;BME280;14654;48.898;8.308;2023-07-09T10:39:10;100477.03;;;33.03;63.04
15634;BME280;14654;48.898;8.308;2023-07-09T10:41:38;100475.22;;;33.03;63.43
15634;BME280;14654;48.898;8.308;2023-07-09T10:44:15;100473.47;;;32.76;63.32
15634;BME280;14654;48.898;8.308;2023-07-09T10:46:47;100470.16;;;33.00;63.17
15634;BME280;14654;48.898;8.308;2023-07-09T10:49:15;100462.88;;;33.37;63.09
15634;BME280;14654;48.898;8.308;2023-07-09T10:51:48;100464.66;;;33.28;63.15
15634;BME280;14654;48.898;8.308;2023-07-09T10:56:47;100453.50;;;33.76;62.40
15634;BME280;14654;48.898;8.308;2023-07-09T10:59:26;100461.25;;;33.87;62.14
15634;BME280;14654;48.898;8.308;2023-07-09T11:02:37;100453.94;;;33.89;62.09
15634;BME280;14654;48.898;8.308;2023-07-09T11:05:06;100451.97;;;34.08;61.48
15634;BME280;14654;48.898;8.308;2023-07-09T11:07:36;100446.28;;;33.68;59.01
15634;BME280;14654;48.898;8.308;2023-07-09T11:10:10;100444.78;;;33.73;58.17
15634;BME280;14654;48.898;8.308;2023-07-09T11:12:42;100440.00;;;33.94;58.43
15634;BME280;14654;48.898;8.308;2023-07-09T11:15:16;100444.88;;;33.98;61.34
15634;BME280;14654;48.898;8.308;2023-07-09T11:17:45;100436.53;;;34.18;61.01
15634;BME280;14654;48.898;8.308;2023-07-09T11:20:34;100438.97;;;33.86;59.98
15634;BME280;14654;48.898;8.308;2023-07-09T11:23:06;100442.69;;;33.94;59.81
15634;BME280;14654;48.898;8.308;2023-07-09T11:25:42;100432.19;;;34.17;59.28
15634;BME280;14654;48.898;8.308;2023-07-09T11:28:08;100433.59;;;34.46;58.70
15634;BME280;14654;48.898;8.308;2023-07-09T11:33:26;100425.19;;;34.49;60.10
15634;BME280;14654;48.898;8.308;2023-07-09T11:36:13;100427.66;;;34.34;60.36
15634;BME280;14654;48.898;8.308;2023-07-09T11:38:46;100432.75;;;34.54;59.49
15634;BME280;14654;48.898;8.308;2023-07-09T11:41:28;100428.72;;;34.58;59.69
15634;BME280;14654;48.898;8.308;2023-07-09T11:44:28;100433.06;;;34.84;59.19
15634;BME280;14654;48.898;8.308;2023-07-09T11:50:01;100415.63;;;34.71;57.65
15634;BME280;14654;48.898;8.308;2023-07-09T11:52:30;100421.66;;;34.57;57.66
15634;BME280;14654;48.898;8.308;2023-07-09T11:54:56;100416.78;;;34.77;58.10
15634;BME280;14654;48.898;8.308;2023-07-09T11:57:22;100421.16;;;34.94;58.66
15634;BME280;14654;48.898;8.308;2023-07-09T11:59:47;100423.13;;;34.92;58.58
15634;BME280;14654;48.898;8.308;2023-07-09T12:02:21;100417.66;;;34.61;56.87
15634;BME280;14654;48.898;8.308;2023-07-09T12:04:48;100415.97;;;34.60;58.06
15634;BME280;14654;48.898;8.308;2023-07-09T12:07:16;100402.00;;;34.98;57.47
15634;BME280;14654;48.898;8.308;2023-07-09T12:09:46;100399.63;;;35.11;56.72
15634;BME280;14654;48.898;8.308;2023-07-09T12:12:20;100408.31;;;35.30;57.30
15634;BME280;14654;48.898;8.308;2023-07-09T12:14:46;100403.06;;;35.45;57.03
15634;BME280;14654;48.898;8.308;2023-07-09T12:17:11;100397.06;;;35.66;57.31
15634;BME280;14654;48.898;8.308;2023-07-09T12:19:38;100396.69;;;35.77;57.29
15634;BME280;14654;48.898;8.308;2023-07-09T12:22:09;100397.50;;;35.78;56.74
15634;BME280;14654;48.898;8.308;2023-07-09T12:24:41;100392.13;;;35.78;56.60
15634;BME280;14654;48.898;8.308;2023-07-09T12:27:25;100379.22;;;35.73;54.56
15634;BME280;14654;48.898;8.308;2023-07-09T12:29:55;100381.34;;;35.38;55.55
15634;BME280;14654;48.898;8.308;2023-07-09T12:32:21;100373.41;;;35.05;55.49
15634;BME280;14654;48.898;8.308;2023-07-09T12:34:52;100372.53;;;35.21;55.65
15634;BME280;14654;48.898;8.308;2023-07-09T12:37:20;100371.72;;;34.87;55.95
15634;BME280;14654;48.898;8.308;2023-07-09T12:39:49;100364.47;;;35.13;55.12
15634;BME280;14654;48.898;8.308;2023-07-09T12:42:19;100364.47;;;35.13;54.89
15634;BME280;14654;48.898;8.308;2023-07-09T12:44:46;100363.66;;;34.87;52.27
15634;BME280;14654;48.898;8.308;2023-07-09T12:47:14;100351.03;;;35.13;51.68
15634;BME280;14654;48.898;8.308;2023-07-09T12:49:42;100350.09;;;35.45;52.92
15634;BME280;14654;48.898;8.308;2023-07-09T12:52:20;100351.97;;;35.28;53.17
15634;BME280;14654;48.898;8.308;2023-07-09T12:54:56;100339.38;;;35.20;53.69
15634;BME280;14654;48.898;8.308;2023-07-09T12:57:22;100334.34;;;35.17;54.24
15634;BME280;14654;48.898;8.308;2023-07-09T12:59:48;100333.31;;;35.27;53.86
15634;BME280;14654;48.898;8.308;2023-07-09T13:04:45;100331.88;;;35.79;51.60
15634;BME280;14654;48.898;8.308;2023-07-09T13:09:53;100323.38;;;35.67;51.79
15634;BME280;14654;48.898;8.308;2023-07-09T13:12:30;100322.78;;;35.80;51.65
15634;BME280;14654;48.898;8.308;2023-07-09T13:14:57;100326.38;;;35.72;51.72
15634;BME280;14654;48.898;8.308;2023-07-09T13:17:22;100323.69;;;35.72;51.68
15634;BME280;14654;48.898;8.308;2023-07-09T13:19:48;100321.31;;;36.00;51.71
15634;BME280;14654;48.898;8.308;2023-07-09T13:22:16;100325.13;;;36.29;51.19
15634;BME280;14654;48.898;8.308;2023-07-09T13:24:46;100318.06;;;36.52;51.16
15634;BME280;14654;48.898;8.308;2023-07-09T13:27:13;100321.38;;;36.54;50.90
15634;BME280;14654;48.898;8.308;2023-07-09T13:29:39;100317.41;;;36.50;52.61
15634;BME280;14654;48.898;8.308;2023-07-09T13:32:14;100316.00;;;36.30;51.81